createdAt,value
2022-10-11T00:02:01.109Z,9.54
2022-10-11T00:04:29.001Z,9.48
2022-10-11T00:07:07.856Z,8.85
2022-10-11T00:09:35.831Z,9.32
2022-10-11T00:12:04.230Z,9.25
2022-10-11T00:14:33.923Z,7.93
2022-10-11T00:17:01.910Z,8.89
2022-10-11T00:19:30.539Z,8.68
2022-10-11T00:22:00.816Z,7.12
2022-10-11T00:24:47.823Z,8.90
2022-10-11T00:27:42.745Z,8.01
2022-10-11T00:30:27.153Z,8.27
2022-10-11T00:33:13.969Z,7.13
2022-10-11T00:35:57.589Z,8.34
2022-10-11T00:38:42.303Z,8.54
2022-10-11T00:41:40.009Z,8.46
2022-10-11T00:44:34.274Z,8.40
2022-10-11T00:47:20.401Z,6.77
2022-10-11T01:00:30.562Z,7.96
2022-10-11T01:03:11.141Z,6.79
2022-10-11T01:05:55.354Z,5.39
2022-10-11T01:11:42.506Z,7.78
2022-10-11T01:15:17.737Z,7.74
2022-10-11T01:18:50.066Z,7.66
2022-10-11T01:21:48.145Z,6.63
2022-10-11T01:24:54.894Z,7.25
2022-10-11T01:32:29.800Z,7.38
2022-10-11T01:55:07.620Z,6.92
2022-10-11T01:57:53.416Z,6.53
2022-10-11T02:00:53.444Z,6.86
2022-10-11T02:03:44.616Z,6.82
2022-10-11T02:06:50.056Z,5.64
2022-10-11T02:10:25.653Z,6.18
2022-10-11T02:13:24.354Z,5.93
2022-10-11T02:16:23.398Z,4.88
2022-10-11T02:19:21.965Z,5.36
2022-10-11T02:32:38.473Z,5.68
2022-10-11T02:46:31.297Z,6.10
2022-10-11T02:49:21.197Z,5.56
2022-10-11T02:52:18.917Z,6.08
2022-10-11T02:55:14.266Z,6.07
2022-10-11T02:58:07.920Z,6.06
2022-10-11T03:11:20.062Z,5.84
2022-10-11T03:14:00.075Z,5.10
2022-10-11T03:16:55.139Z,3.43
2022-10-11T03:30:06.440Z,3.86
2022-10-11T03:33:39.957Z,4.01
2022-10-11T03:36:23.056Z,5.48
2022-10-11T03:49:32.653Z,5.60
2022-10-11T03:59:35.825Z,6.44
2022-10-11T04:03:10.740Z,6.33
2022-10-11T04:16:48.545Z,6.72
2022-10-11T04:20:10.635Z,6.99
2022-10-11T04:23:07.672Z,6.90
2022-10-11T04:25:53.793Z,5.73
2022-10-11T04:28:41.252Z,6.78
2022-10-11T04:31:35.591Z,6.90
2022-10-11T04:34:16.661Z,6.55
2022-10-11T04:37:11.100Z,7.50
2022-10-11T04:39:50.216Z,7.41
2022-10-11T04:42:35.070Z,7.56
2022-10-11T04:45:14.703Z,7.70
2022-10-11T04:47:57.498Z,7.16
2022-10-11T04:50:37.680Z,7.80
2022-10-11T04:53:27.873Z,7.82
2022-10-11T04:56:15.042Z,7.57
2022-10-11T04:59:00.739Z,7.50
2022-10-11T05:12:23.303Z,6.49
2022-10-11T05:15:06.096Z,8.14
2022-10-11T05:28:11.982Z,8.05
2022-10-11T05:30:54.506Z,8.31
2022-10-11T05:33:35.556Z,7.15
2022-10-11T05:36:19.757Z,8.16
2022-10-11T05:39:02.935Z,8.49
2022-10-11T05:42:05.462Z,8.48
2022-10-11T05:45:01.697Z,8.60
2022-10-11T05:47:41.829Z,8.14
2022-10-11T05:51:09.804Z,8.68
2022-10-11T05:53:50.693Z,8.27
2022-10-11T05:56:34.979Z,7.50
2022-10-11T05:59:18.004Z,8.59
2022-10-11T06:02:00.192Z,7.80
2022-10-11T06:04:42.419Z,8.81
2022-10-11T06:07:24.138Z,8.85
2022-10-11T06:10:05.864Z,7.34
2022-10-11T06:12:54.834Z,8.02
2022-10-11T06:15:49.308Z,8.90
2022-10-11T06:18:43.755Z,8.02
2022-10-11T06:21:49.017Z,8.39
2022-10-11T06:24:49.085Z,8.35
2022-10-11T06:27:47.486Z,8.64
2022-10-11T06:30:56.794Z,9.38
2022-10-11T06:33:54.927Z,9.45
2022-10-11T06:50:58.967Z,8.95
2022-10-11T06:53:56.653Z,8.11
2022-10-11T06:56:53.602Z,9.33
2022-10-11T06:59:32.506Z,9.20
2022-10-11T07:02:27.922Z,8.99
2022-10-11T07:05:36.414Z,7.85
2022-10-11T07:09:55.910Z,9.69
2022-10-11T07:12:36.452Z,10.12
2022-10-11T07:15:32.071Z,10.12
2022-10-11T07:18:40.857Z,9.15
2022-10-11T07:21:21.595Z,10.30
2022-10-11T07:24:28.174Z,10.32
2022-10-11T07:27:26.690Z,10.24
2022-10-11T07:30:32.492Z,10.56
2022-10-11T07:33:41.998Z,10.76
2022-10-11T07:36:53.390Z,10.90
2022-10-11T07:39:56.857Z,9.37
2022-10-11T07:43:02.723Z,10.97
2022-10-11T07:56:33.337Z,10.84
2022-10-11T07:59:27.870Z,11.78
2022-10-11T08:02:23.914Z,11.79
2022-10-11T08:05:28.427Z,11.61
2022-10-11T08:08:25.025Z,11.67
2022-10-11T08:11:05.005Z,11.61
2022-10-11T08:14:08.809Z,11.62
2022-10-11T08:16:47.360Z,11.08
2022-10-11T08:19:25.885Z,10.97
2022-10-11T08:22:24.241Z,11.58
2022-10-11T08:25:05.296Z,11.70
2022-10-11T08:28:05.206Z,10.95
2022-10-11T08:31:13.483Z,9.77
2022-10-11T08:34:12.026Z,10.84
2022-10-11T08:37:10.691Z,12.17
2022-10-11T08:39:51.767Z,11.83
2022-10-11T08:42:37.317Z,11.58
2022-10-11T08:45:36.628Z,12.13
2022-10-11T08:48:35.757Z,11.67
2022-10-11T08:51:34.726Z,12.32
2022-10-11T08:54:39.763Z,12.40
2022-10-11T08:57:40.623Z,12.28
2022-10-11T09:01:06.998Z,12.72
2022-10-11T09:04:43.198Z,12.79
2022-10-11T09:18:13.567Z,13.16
2022-10-11T09:21:34.883Z,13.55
2022-10-11T09:24:52.746Z,13.33
2022-10-11T09:28:03.548Z,13.41
2022-10-11T09:30:51.573Z,13.47
2022-10-11T09:33:48.304Z,13.55
2022-10-11T09:36:47.957Z,15.75
2022-10-11T09:39:37.328Z,16.69
2022-10-11T09:42:19.735Z,16.88
2022-10-11T09:44:49.153Z,16.50
2022-10-11T09:47:20.297Z,17.59
2022-10-11T09:50:00.969Z,17.44
2022-10-11T09:58:40.157Z,19.49
2022-10-11T10:01:23.716Z,19.51
2022-10-11T10:04:29.051Z,18.22
2022-10-11T10:07:13.138Z,18.33
2022-10-11T10:09:41.153Z,21.46
2022-10-11T10:12:13.986Z,23.97
2022-10-11T10:14:43.296Z,26.13
2022-10-11T10:17:17.451Z,26.31
2022-10-11T10:19:50.443Z,26.39
2022-10-11T10:22:21.397Z,26.34
2022-10-11T10:24:51.310Z,26.26
2022-10-11T10:27:22.336Z,26.43
2022-10-11T10:30:25.035Z,27.55
2022-10-11T10:33:02.210Z,28.03
2022-10-11T10:40:17.994Z,33.37
2022-10-11T10:42:49.108Z,34.88
2022-10-11T10:45:23.175Z,36.13
2022-10-11T10:48:24.720Z,36.70
2022-10-11T10:51:21.100Z,37.66
2022-10-11T10:54:03.539Z,38.57
2022-10-11T10:56:46.014Z,38.89
2022-10-11T10:59:38.951Z,39.30
2022-10-11T11:02:39.633Z,39.31
2022-10-11T11:09:47.757Z,39.89
2022-10-11T11:12:49.579Z,39.21
2022-10-11T11:15:33.144Z,39.97
2022-10-11T11:18:23.015Z,37.70
2022-10-11T11:21:05.314Z,39.17
2022-10-11T11:23:41.891Z,38.05
2022-10-11T11:26:22.210Z,39.18
2022-10-11T11:29:10.290Z,40.84
2022-10-11T11:32:01.892Z,41.47
2022-10-11T11:34:38.390Z,40.02
2022-10-11T11:37:22.874Z,40.76
2022-10-11T11:39:59.275Z,41.56
2022-10-11T11:42:40.399Z,41.72
2022-10-11T11:45:18.470Z,42.53
2022-10-11T11:47:53.073Z,40.97
2022-10-11T11:50:25.338Z,39.47
2022-10-11T11:52:58.710Z,40.21
2022-10-11T11:55:33.431Z,39.15
2022-10-11T11:58:26.579Z,38.04
2022-10-11T12:01:03.757Z,35.30
2022-10-11T12:03:39.296Z,37.09
2022-10-11T12:06:25.798Z,34.75
2022-10-11T12:12:06.091Z,28.19
2022-10-11T12:14:41.611Z,28.06
2022-10-11T12:21:24.093Z,33.51
2022-10-11T12:23:54.339Z,32.92
2022-10-11T12:26:41.511Z,34.16
2022-10-11T12:29:47.341Z,34.84
2022-10-11T12:32:53.588Z,33.03
2022-10-11T12:36:07.305Z,30.70
2022-10-11T12:38:40.091Z,27.91
2022-10-11T12:41:50.132Z,25.78
2022-10-11T12:44:24.111Z,23.33
2022-10-11T12:47:26.103Z,23.71
2022-10-11T12:50:14.489Z,21.97
2022-10-11T12:52:55.529Z,21.74
2022-10-11T12:55:36.139Z,22.20
2022-10-11T12:58:30.749Z,21.51
2022-10-11T13:01:19.162Z,20.77
2022-10-11T13:03:53.231Z,20.36
2022-10-11T13:06:25.095Z,19.87
2022-10-11T13:09:10.462Z,18.30
2022-10-11T13:11:48.432Z,18.72
2022-10-11T13:14:19.862Z,17.75
2022-10-11T13:17:05.107Z,18.41
2022-10-11T13:19:36.582Z,16.86
2022-10-11T13:22:06.554Z,16.90
2022-10-11T13:24:39.853Z,17.59
2022-10-11T13:27:17.118Z,16.71
2022-10-11T13:29:46.399Z,16.11
2022-10-11T13:32:18.811Z,15.84
2022-10-11T13:34:52.677Z,15.74
2022-10-11T13:37:23.972Z,16.47
2022-10-11T13:43:36.898Z,16.08
2022-10-11T13:46:45.551Z,15.69
2022-10-11T13:54:18.030Z,15.39
2022-10-11T13:56:52.473Z,15.50
2022-10-11T13:59:23.700Z,13.80
2022-10-11T14:21:37.053Z,14.33
2022-10-11T14:24:06.566Z,15.12
2022-10-11T14:26:36.945Z,15.12
2022-10-11T14:29:10.432Z,15.52
2022-10-11T14:31:41.705Z,15.32
2022-10-11T14:34:17.193Z,15.04
2022-10-11T14:36:46.656Z,15.42
2022-10-11T14:39:16.499Z,15.38
2022-10-11T14:41:44.833Z,15.22
2022-10-11T14:44:12.872Z,15.28
2022-10-11T14:46:41.361Z,15.23
2022-10-11T14:49:14.825Z,14.03
2022-10-11T14:51:43.550Z,14.03
2022-10-11T14:54:14.073Z,14.09
2022-10-11T14:56:41.981Z,12.92
2022-10-11T14:59:13.840Z,14.90
2022-10-11T15:01:42.512Z,14.77
2022-10-11T15:04:10.673Z,14.45
2022-10-11T15:06:40.552Z,13.64
2022-10-11T15:09:09.028Z,14.67
2022-10-11T15:11:39.592Z,13.52
2022-10-11T15:14:08.118Z,14.59
2022-10-11T15:16:36.529Z,13.27
2022-10-11T15:19:05.035Z,13.13
2022-10-11T15:21:33.357Z,13.86
2022-10-11T15:24:01.201Z,13.91
2022-10-11T15:26:32.639Z,13.37
2022-10-11T15:29:04.597Z,14.22
2022-10-11T15:31:33.888Z,14.18
2022-10-11T15:34:01.953Z,13.77
2022-10-11T15:36:30.323Z,12.86
2022-10-11T15:38:58.270Z,13.31
2022-10-11T15:41:26.229Z,13.69
2022-10-11T15:43:54.547Z,13.17
2022-10-11T15:46:24.114Z,12.49
2022-10-11T15:48:52.685Z,13.19
2022-10-11T15:51:20.893Z,13.76
2022-10-11T15:53:48.606Z,13.69
2022-10-11T15:56:19.314Z,13.60
2022-10-11T15:58:47.231Z,12.42
2022-10-11T16:01:17.893Z,12.73
2022-10-11T16:03:48.295Z,13.26
2022-10-11T16:06:16.693Z,11.71
2022-10-11T16:08:45.018Z,13.02
2022-10-11T16:11:13.697Z,12.92
2022-10-11T16:13:41.694Z,12.41
2022-10-11T16:16:10.556Z,11.76
2022-10-11T16:18:40.552Z,11.47
2022-10-11T16:21:15.379Z,12.47
2022-10-11T16:23:43.481Z,12.37
2022-10-11T16:26:17.362Z,12.27
2022-10-11T16:28:47.800Z,12.16
2022-10-11T16:31:20.678Z,12.05
2022-10-11T16:33:48.678Z,11.93
2022-10-11T16:36:35.951Z,11.84
2022-10-11T16:39:08.135Z,11.73
2022-10-11T16:41:36.228Z,9.16
2022-10-11T16:44:04.852Z,9.99
2022-10-11T16:46:34.053Z,11.42
2022-10-11T16:49:02.056Z,10.68
2022-10-11T16:51:31.295Z,11.05
2022-10-11T16:53:59.693Z,11.12
2022-10-11T16:56:27.890Z,10.82
2022-10-11T16:58:56.325Z,10.94
2022-10-11T17:01:25.248Z,10.85
2022-10-11T17:03:54.036Z,10.77
2022-10-11T17:06:21.778Z,10.49
2022-10-11T17:08:50.936Z,10.06
2022-10-11T17:11:18.965Z,10.37
2022-10-11T17:13:46.985Z,10.27
2022-10-11T17:16:15.132Z,10.25
2022-10-11T17:18:42.911Z,10.04
2022-10-11T17:21:14.226Z,9.77
2022-10-11T17:23:42.664Z,9.92
2022-10-11T17:26:16.178Z,9.74
2022-10-11T17:28:44.223Z,9.23
2022-10-11T17:31:12.582Z,9.23
2022-10-11T17:33:40.554Z,9.60
2022-10-11T17:36:17.898Z,9.51
2022-10-11T17:38:45.805Z,9.43
2022-10-11T17:41:15.032Z,9.35
2022-10-11T17:43:43.167Z,8.95
2022-10-11T17:46:13.282Z,9.18
2022-10-11T17:48:41.361Z,9.21
2022-10-11T17:51:10.754Z,8.72
2022-10-11T17:53:40.525Z,8.59
2022-10-11T17:56:11.488Z,7.51
2022-10-11T17:58:41.121Z,7.72
2022-10-11T18:01:11.961Z,8.56
2022-10-11T18:03:40.372Z,8.27
2022-10-11T18:06:10.123Z,8.72
2022-10-11T18:08:40.832Z,8.48
2022-10-11T18:11:12.064Z,7.15
2022-10-11T18:13:45.808Z,7.34
2022-10-11T18:16:14.634Z,8.20
2022-10-11T18:18:43.332Z,8.14
2022-10-11T18:21:12.487Z,7.79
2022-10-11T18:23:41.385Z,7.91
2022-10-11T18:26:11.752Z,7.90
2022-10-11T18:28:42.198Z,7.75
2022-10-11T18:31:13.936Z,8.18
2022-10-11T18:33:43.464Z,8.04
2022-10-11T18:36:14.041Z,8.05
2022-10-11T18:38:46.359Z,8.00
2022-10-11T18:41:19.089Z,7.74
2022-10-11T18:43:52.398Z,7.08
2022-10-11T18:46:22.196Z,7.74
2022-10-11T18:48:52.468Z,7.78
2022-10-11T18:51:22.889Z,7.74
2022-10-11T18:53:51.414Z,7.59
2022-10-11T18:56:21.994Z,7.09
2022-10-11T18:58:53.878Z,7.53
2022-10-11T19:01:24.023Z,7.13
2022-10-11T19:03:54.086Z,7.55
2022-10-11T19:06:25.013Z,7.36
2022-10-11T19:09:01.232Z,6.46
2022-10-11T19:11:29.490Z,7.02
2022-10-11T19:14:02.011Z,7.04
2022-10-11T19:16:31.689Z,7.21
2022-10-11T19:19:00.029Z,6.82
2022-10-11T19:21:31.583Z,6.95
2022-10-11T19:24:00.425Z,6.49
2022-10-11T19:26:31.305Z,6.33
2022-10-11T19:29:03.447Z,7.08
2022-10-11T19:31:33.459Z,6.75
2022-10-11T19:34:04.450Z,7.02
2022-10-11T19:36:36.624Z,6.96
2022-10-11T19:39:06.275Z,6.50
2022-10-11T19:41:34.674Z,6.50
2022-10-11T19:44:04.863Z,5.45
2022-10-11T19:46:50.375Z,5.54
2022-10-11T19:49:21.492Z,6.35
2022-10-11T19:51:49.610Z,4.10
2022-10-11T19:54:18.101Z,5.47
2022-10-11T19:56:46.117Z,6.71
2022-10-11T19:59:17.513Z,6.36
2022-10-11T20:01:52.307Z,3.76
2022-10-11T20:07:17.702Z,6.54
2022-10-11T20:09:45.945Z,6.50
2022-10-11T20:12:20.423Z,5.41
2022-10-11T20:15:07.568Z,6.41
2022-10-11T20:17:50.646Z,6.31
2022-10-11T20:21:04.319Z,5.48
2022-10-11T20:23:38.565Z,6.25
2022-10-11T20:26:37.720Z,6.22
2022-10-11T20:29:14.426Z,4.44
2022-10-11T20:31:48.389Z,6.15
2022-10-11T20:34:17.503Z,5.03
2022-10-11T20:36:49.381Z,3.24
2022-10-11T20:39:24.411Z,2.91
2022-10-11T20:41:54.484Z,4.26
2022-10-11T20:44:22.702Z,3.90
2022-10-11T20:47:01.636Z,4.94
2022-10-11T20:49:37.343Z,4.14
2022-10-11T20:52:08.765Z,3.71
2022-10-11T20:54:37.289Z,3.96
2022-10-11T20:57:07.802Z,5.22
2022-10-11T20:59:36.346Z,2.87
2022-10-11T21:02:06.239Z,4.30
2022-10-11T21:04:34.466Z,5.58
2022-10-11T21:07:02.529Z,5.36
2022-10-11T21:09:30.730Z,5.12
2022-10-11T21:11:58.722Z,4.79
2022-10-11T21:14:26.690Z,4.28
2022-10-11T21:16:57.260Z,5.08
2022-10-11T21:19:27.117Z,4.77
2022-10-11T21:21:55.841Z,4.80
2022-10-11T21:24:23.843Z,4.74
2022-10-11T21:26:51.729Z,5.24
2022-10-11T21:29:19.649Z,5.44
2022-10-11T21:31:47.548Z,4.08
2022-10-11T21:34:16.536Z,4.69
2022-10-11T21:36:46.721Z,5.37
2022-10-11T21:39:14.949Z,5.34
2022-10-11T21:41:43.603Z,4.66
2022-10-11T21:44:11.718Z,3.10
2022-10-11T21:47:05.525Z,5.27
2022-10-11T21:49:28.113Z,4.97
2022-10-11T21:51:58.285Z,3.75
2022-10-11T21:54:26.188Z,3.89
2022-10-11T21:56:54.469Z,3.73
2022-10-11T21:59:23.050Z,5.10
2022-10-11T22:01:51.727Z,4.77
2022-10-11T22:04:20.006Z,4.01
2022-10-11T22:06:48.259Z,4.49
2022-10-11T22:09:17.612Z,4.63
2022-10-11T22:11:45.540Z,4.75
2022-10-11T22:14:13.985Z,4.92
2022-10-11T22:16:41.998Z,4.75
2022-10-11T22:19:10.233Z,2.12
2022-10-11T22:21:42.628Z,4.77
2022-10-11T22:24:13.404Z,3.40
2022-10-11T22:26:42.701Z,4.45
2022-10-11T22:29:12.838Z,3.49
2022-10-11T22:31:41.449Z,2.97
2022-10-11T22:34:09.404Z,4.79
2022-10-11T22:36:37.196Z,4.59
2022-10-11T22:39:07.920Z,4.73
2022-10-11T22:41:38.299Z,3.17
2022-10-11T22:44:10.414Z,4.40
2022-10-11T22:46:38.217Z,4.65
2022-10-11T22:49:07.698Z,4.07
2022-10-11T22:51:35.854Z,3.50
2022-10-11T22:54:03.689Z,4.49
2022-10-11T22:56:31.533Z,4.54
2022-10-11T22:58:59.734Z,4.13
2022-10-11T23:01:28.990Z,3.61
2022-10-11T23:03:56.829Z,4.37
2022-10-11T23:06:25.443Z,3.70
2022-10-11T23:08:54.188Z,3.18
2022-10-11T23:11:22.183Z,4.15
2022-10-11T23:13:51.220Z,4.35
2022-10-11T23:16:20.560Z,4.06
2022-10-11T23:18:52.993Z,3.59
2022-10-11T23:21:21.499Z,3.61
2022-10-11T23:23:49.416Z,3.94
2022-10-11T23:26:17.945Z,4.20
2022-10-11T23:28:46.249Z,4.19
2022-10-11T23:31:16.582Z,3.96
2022-10-11T23:33:44.753Z,2.12
2022-10-11T23:36:16.911Z,3.78
2022-10-11T23:38:45.178Z,4.12
2022-10-11T23:41:12.925Z,4.10
2022-10-11T23:43:40.820Z,3.45
2022-10-11T23:46:08.736Z,3.72
2022-10-11T23:48:36.541Z,3.67
2022-10-11T23:51:04.485Z,4.01
2022-10-11T23:53:34.124Z,3.94
2022-10-11T23:56:01.957Z,3.96
2022-10-11T23:58:29.737Z,3.94
